sensor_id;sensor_type;location;lat;lon;timestamp;P1;durP1;ratioP1;P2;durP2;ratioP2
48685;SDS011;34485;51.536;3.816;2023-01-10T00:00:19;11.50;;;3.88;;
48685;SDS011;34485;51.536;3.816;2023-01-10T00:02:45;16.42;;;3.38;;
48685;SDS011;34485;51.536;3.816;2023-01-10T00:05:11;16.23;;;5.60;;
48685;SDS011;34485;51.536;3.816;2023-01-10T00:07:37;8.53;;;3.43;;
48685;SDS011;34485;51.536;3.816;2023-01-10T00:10:03;9.43;;;3.37;;
48685;SDS011;34485;51.536;3.816;2023-01-10T00:12:29;11.70;;;4.82;;
48685;SDS011;34485;51.536;3.816;2023-01-10T00:15:14;17.67;;;4.65;;
48685;SDS011;34485;51.536;3.816;2023-01-10T00:17:40;15.35;;;3.65;;
48685;SDS011;34485;51.536;3.816;2023-01-10T00:20:06;13.53;;;4.03;;
48685;SDS011;34485;51.536;3.816;2023-01-10T00:22:32;17.83;;;3.95;;
48685;SDS011;34485;51.536;3.816;2023-01-10T00:24:58;20.90;;;4.10;;
48685;SDS011;34485;51.536;3.816;2023-01-10T00:27:24;18.70;;;4.55;;
48685;SDS011;34485;51.536;3.816;2023-01-10T00:29:50;14.32;;;3.53;;
48685;SDS011;34485;51.536;3.816;2023-01-10T00:32:17;16.73;;;4.33;;
48685;SDS011;34485;51.536;3.816;2023-01-10T00:34:43;18.83;;;4.22;;
48685;SDS011;34485;51.536;3.816;2023-01-10T00:37:09;20.23;;;4.05;;
48685;SDS011;34485;51.536;3.816;2023-01-10T00:39:35;23.02;;;4.20;;
48685;SDS011;34485;51.536;3.816;2023-01-10T00:42:01;16.47;;;5.53;;
48685;SDS011;34485;51.536;3.816;2023-01-10T00:44:46;22.17;;;4.50;;
48685;SDS011;34485;51.536;3.816;2023-01-10T00:47:13;12.63;;;3.75;;
48685;SDS011;34485;51.536;3.816;2023-01-10T00:49:39;24.05;;;3.90;;
48685;SDS011;34485;51.536;3.816;2023-01-10T00:52:05;25.17;;;5.05;;
48685;SDS011;34485;51.536;3.816;2023-01-10T00:54:31;16.52;;;4.60;;
48685;SDS011;34485;51.536;3.816;2023-01-10T00:56:57;27.90;;;4.83;;
48685;SDS011;34485;51.536;3.816;2023-01-10T00:59:23;16.58;;;4.68;;
48685;SDS011;34485;51.536;3.816;2023-01-10T01:01:49;23.75;;;4.93;;
48685;SDS011;34485;51.536;3.816;2023-01-10T01:04:16;16.48;;;4.47;;
48685;SDS011;34485;51.536;3.816;2023-01-10T01:06:45;26.00;;;4.43;;
48685;SDS011;34485;51.536;3.816;2023-01-10T01:09:13;18.97;;;3.97;;
48685;SDS011;34485;51.536;3.816;2023-01-10T01:11:39;18.98;;;5.07;;
48685;SDS011;34485;51.536;3.816;2023-01-10T01:14:05;19.67;;;3.58;;
48685;SDS011;34485;51.536;3.816;2023-01-10T01:16:31;21.10;;;4.93;;
48685;SDS011;34485;51.536;3.816;2023-01-10T01:18:57;27.67;;;4.50;;
48685;SDS011;34485;51.536;3.816;2023-01-10T01:21:23;16.77;;;4.33;;
48685;SDS011;34485;51.536;3.816;2023-01-10T01:23:55;32.10;;;6.00;;
48685;SDS011;34485;51.536;3.816;2023-01-10T01:26:21;19.90;;;4.68;;
48685;SDS011;34485;51.536;3.816;2023-01-10T01:28:48;27.15;;;5.38;;
48685;SDS011;34485;51.536;3.816;2023-01-10T01:31:14;26.27;;;4.68;;
48685;SDS011;34485;51.536;3.816;2023-01-10T01:33:40;27.80;;;4.43;;
48685;SDS011;34485;51.536;3.816;2023-01-10T01:36:09;26.92;;;6.15;;
48685;SDS011;34485;51.536;3.816;2023-01-10T01:38:36;27.98;;;5.20;;
48685;SDS011;34485;51.536;3.816;2023-01-10T01:41:02;18.33;;;4.32;;
48685;SDS011;34485;51.536;3.816;2023-01-10T01:43:29;23.33;;;5.20;;
48685;SDS011;34485;51.536;3.816;2023-01-10T01:45:57;22.37;;;4.53;;
48685;SDS011;34485;51.536;3.816;2023-01-10T01:51:07;19.85;;;4.80;;
48685;SDS011;34485;51.536;3.816;2023-01-10T01:53:39;28.90;;;5.18;;
48685;SDS011;34485;51.536;3.816;2023-01-10T01:56:08;32.00;;;6.20;;
48685;SDS011;34485;51.536;3.816;2023-01-10T01:58:38;32.07;;;5.20;;
48685;SDS011;34485;51.536;3.816;2023-01-10T02:01:06;21.95;;;4.30;;
48685;SDS011;34485;51.536;3.816;2023-01-10T02:03:32;28.20;;;5.57;;
48685;SDS011;34485;51.536;3.816;2023-01-10T02:05:58;27.92;;;5.22;;
48685;SDS011;34485;51.536;3.816;2023-01-10T02:08:24;25.15;;;5.10;;
48685;SDS011;34485;51.536;3.816;2023-01-10T02:13:46;23.52;;;4.78;;
48685;SDS011;34485;51.536;3.816;2023-01-10T02:16:12;21.00;;;5.28;;
48685;SDS011;34485;51.536;3.816;2023-01-10T02:18:39;26.52;;;6.43;;
48685;SDS011;34485;51.536;3.816;2023-01-10T02:29:22;28.75;;;5.60;;
48685;SDS011;34485;51.536;3.816;2023-01-10T02:34:45;22.40;;;4.47;;
48685;SDS011;34485;51.536;3.816;2023-01-10T02:37:15;27.10;;;5.67;;
48685;SDS011;34485;51.536;3.816;2023-01-10T02:40:03;17.98;;;5.05;;
48685;SDS011;34485;51.536;3.816;2023-01-10T02:42:42;25.77;;;5.57;;
48685;SDS011;34485;51.536;3.816;2023-01-10T02:45:15;22.85;;;5.13;;
48685;SDS011;34485;51.536;3.816;2023-01-10T02:47:42;23.50;;;5.50;;
48685;SDS011;34485;51.536;3.816;2023-01-10T02:52:43;26.25;;;5.60;;
48685;SDS011;34485;51.536;3.816;2023-01-10T02:55:09;33.45;;;5.35;;
48685;SDS011;34485;51.536;3.816;2023-01-10T02:57:46;25.35;;;6.22;;
48685;SDS011;34485;51.536;3.816;2023-01-10T03:00:31;18.63;;;4.70;;
48685;SDS011;34485;51.536;3.816;2023-01-10T03:13:22;24.13;;;5.30;;
48685;SDS011;34485;51.536;3.816;2023-01-10T03:15:50;38.90;;;7.20;;
48685;SDS011;34485;51.536;3.816;2023-01-10T03:18:19;19.13;;;6.18;;
48685;SDS011;34485;51.536;3.816;2023-01-10T03:20:48;29.75;;;5.50;;
48685;SDS011;34485;51.536;3.816;2023-01-10T03:23:15;22.45;;;6.30;;
48685;SDS011;34485;51.536;3.816;2023-01-10T03:25:43;24.30;;;4.75;;
48685;SDS011;34485;51.536;3.816;2023-01-10T03:28:12;29.25;;;5.68;;
48685;SDS011;34485;51.536;3.816;2023-01-10T03:33:11;32.45;;;6.53;;
48685;SDS011;34485;51.536;3.816;2023-01-10T03:38:19;40.05;;;6.28;;
48685;SDS011;34485;51.536;3.816;2023-01-10T03:40:50;26.55;;;5.35;;
48685;SDS011;34485;51.536;3.816;2023-01-10T03:43:25;29.17;;;5.55;;
48685;SDS011;34485;51.536;3.816;2023-01-10T03:46:35;26.75;;;6.22;;
48685;SDS011;34485;51.536;3.816;2023-01-10T03:49:03;42.63;;;7.07;;
48685;SDS011;34485;51.536;3.816;2023-01-10T03:51:29;24.92;;;6.10;;
48685;SDS011;34485;51.536;3.816;2023-01-10T03:53:58;26.27;;;6.20;;
48685;SDS011;34485;51.536;3.816;2023-01-10T03:56:24;23.65;;;5.10;;
48685;SDS011;34485;51.536;3.816;2023-01-10T03:58:50;25.15;;;5.10;;
48685;SDS011;34485;51.536;3.816;2023-01-10T04:01:16;35.53;;;6.93;;
48685;SDS011;34485;51.536;3.816;2023-01-10T04:03:42;33.03;;;5.10;;
48685;SDS011;34485;51.536;3.816;2023-01-10T04:06:08;32.70;;;5.80;;
48685;SDS011;34485;51.536;3.816;2023-01-10T04:08:34;28.88;;;5.55;;
48685;SDS011;34485;51.536;3.816;2023-01-10T04:11:00;26.98;;;5.43;;
48685;SDS011;34485;51.536;3.816;2023-01-10T04:13:26;27.20;;;4.95;;
48685;SDS011;34485;51.536;3.816;2023-01-10T04:15:52;31.60;;;6.20;;
48685;SDS011;34485;51.536;3.816;2023-01-10T04:18:18;33.95;;;5.13;;
48685;SDS011;34485;51.536;3.816;2023-01-10T04:20:44;22.00;;;4.30;;
48685;SDS011;34485;51.536;3.816;2023-01-10T04:23:10;27.50;;;4.85;;
48685;SDS011;34485;51.536;3.816;2023-01-10T04:25:36;28.63;;;5.07;;
48685;SDS011;34485;51.536;3.816;2023-01-10T04:28:02;27.95;;;4.68;;
48685;SDS011;34485;51.536;3.816;2023-01-10T04:30:28;22.98;;;4.93;;
48685;SDS011;34485;51.536;3.816;2023-01-10T04:32:54;24.42;;;5.45;;
48685;SDS011;34485;51.536;3.816;2023-01-10T04:35:20;41.33;;;7.28;;
48685;SDS011;34485;51.536;3.816;2023-01-10T04:37:46;35.50;;;6.83;;
48685;SDS011;34485;51.536;3.816;2023-01-10T04:40:12;33.70;;;6.13;;
48685;SDS011;34485;51.536;3.816;2023-01-10T04:42:41;31.23;;;5.63;;
48685;SDS011;34485;51.536;3.816;2023-01-10T04:45:07;36.88;;;5.97;;
48685;SDS011;34485;51.536;3.816;2023-01-10T04:47:35;32.60;;;5.97;;
48685;SDS011;34485;51.536;3.816;2023-01-10T04:50:01;32.83;;;6.18;;
48685;SDS011;34485;51.536;3.816;2023-01-10T04:52:27;24.40;;;4.88;;
48685;SDS011;34485;51.536;3.816;2023-01-10T04:54:53;25.27;;;5.80;;
48685;SDS011;34485;51.536;3.816;2023-01-10T04:57:19;28.15;;;5.88;;
48685;SDS011;34485;51.536;3.816;2023-01-10T04:59:45;28.37;;;5.67;;
48685;SDS011;34485;51.536;3.816;2023-01-10T05:02:11;23.67;;;4.32;;
48685;SDS011;34485;51.536;3.816;2023-01-10T05:04:37;30.60;;;6.10;;
48685;SDS011;34485;51.536;3.816;2023-01-10T05:07:03;28.30;;;5.07;;
48685;SDS011;34485;51.536;3.816;2023-01-10T05:09:29;19.70;;;5.13;;
48685;SDS011;34485;51.536;3.816;2023-01-10T05:11:55;32.58;;;4.80;;
48685;SDS011;34485;51.536;3.816;2023-01-10T05:14:21;28.05;;;5.35;;
48685;SDS011;34485;51.536;3.816;2023-01-10T05:16:47;28.23;;;5.20;;
48685;SDS011;34485;51.536;3.816;2023-01-10T05:19:13;33.65;;;5.53;;
48685;SDS011;34485;51.536;3.816;2023-01-10T05:21:39;33.53;;;5.77;;
48685;SDS011;34485;51.536;3.816;2023-01-10T05:24:05;30.27;;;6.75;;
48685;SDS011;34485;51.536;3.816;2023-01-10T05:26:31;28.20;;;6.57;;
48685;SDS011;34485;51.536;3.816;2023-01-10T05:28:57;38.63;;;5.78;;
48685;SDS011;34485;51.536;3.816;2023-01-10T05:31:23;27.48;;;6.10;;
48685;SDS011;34485;51.536;3.816;2023-01-10T05:33:49;27.43;;;5.40;;
48685;SDS011;34485;51.536;3.816;2023-01-10T05:36:16;25.73;;;4.80;;
48685;SDS011;34485;51.536;3.816;2023-01-10T05:38:42;31.27;;;5.65;;
48685;SDS011;34485;51.536;3.816;2023-01-10T05:41:08;30.08;;;5.05;;
48685;SDS011;34485;51.536;3.816;2023-01-10T05:43:35;26.10;;;5.82;;
48685;SDS011;34485;51.536;3.816;2023-01-10T05:46:01;26.50;;;5.37;;
48685;SDS011;34485;51.536;3.816;2023-01-10T05:48:26;26.33;;;5.80;;
48685;SDS011;34485;51.536;3.816;2023-01-10T05:50:52;26.37;;;5.00;;
48685;SDS011;34485;51.536;3.816;2023-01-10T05:53:18;35.42;;;6.38;;
48685;SDS011;34485;51.536;3.816;2023-01-10T05:55:51;25.02;;;4.95;;
48685;SDS011;34485;51.536;3.816;2023-01-10T05:58:17;43.53;;;7.43;;
48685;SDS011;34485;51.536;3.816;2023-01-10T06:00:43;23.45;;;5.60;;
48685;SDS011;34485;51.536;3.816;2023-01-10T06:03:09;24.80;;;5.70;;
48685;SDS011;34485;51.536;3.816;2023-01-10T06:05:34;28.63;;;5.47;;
48685;SDS011;34485;51.536;3.816;2023-01-10T06:08:00;23.42;;;5.18;;
48685;SDS011;34485;51.536;3.816;2023-01-10T06:10:25;33.83;;;5.60;;
48685;SDS011;34485;51.536;3.816;2023-01-10T06:12:51;22.63;;;6.20;;
48685;SDS011;34485;51.536;3.816;2023-01-10T06:15:17;28.30;;;5.57;;
48685;SDS011;34485;51.536;3.816;2023-01-10T06:17:42;28.70;;;6.03;;
48685;SDS011;34485;51.536;3.816;2023-01-10T06:20:11;31.40;;;5.78;;
48685;SDS011;34485;51.536;3.816;2023-01-10T06:22:40;34.17;;;5.90;;
48685;SDS011;34485;51.536;3.816;2023-01-10T06:25:06;23.35;;;4.80;;
48685;SDS011;34485;51.536;3.816;2023-01-10T06:27:32;28.58;;;5.70;;
48685;SDS011;34485;51.536;3.816;2023-01-10T06:29:58;31.90;;;6.20;;
48685;SDS011;34485;51.536;3.816;2023-01-10T06:32:25;22.50;;;4.78;;
48685;SDS011;34485;51.536;3.816;2023-01-10T06:34:51;37.00;;;5.93;;
48685;SDS011;34485;51.536;3.816;2023-01-10T06:37:17;23.23;;;5.55;;
48685;SDS011;34485;51.536;3.816;2023-01-10T06:39:43;28.83;;;5.35;;
48685;SDS011;34485;51.536;3.816;2023-01-10T06:42:10;36.80;;;5.25;;
48685;SDS011;34485;51.536;3.816;2023-01-10T06:44:36;32.58;;;4.88;;
48685;SDS011;34485;51.536;3.816;2023-01-10T06:47:02;18.85;;;5.32;;
48685;SDS011;34485;51.536;3.816;2023-01-10T06:49:28;33.03;;;7.07;;
48685;SDS011;34485;51.536;3.816;2023-01-10T06:51:54;21.20;;;5.30;;
48685;SDS011;34485;51.536;3.816;2023-01-10T06:54:20;20.48;;;5.25;;
48685;SDS011;34485;51.536;3.816;2023-01-10T06:56:46;31.48;;;6.43;;
48685;SDS011;34485;51.536;3.816;2023-01-10T06:59:13;35.83;;;6.70;;
48685;SDS011;34485;51.536;3.816;2023-01-10T07:01:38;52.83;;;9.43;;
48685;SDS011;34485;51.536;3.816;2023-01-10T07:04:04;35.05;;;6.65;;
48685;SDS011;34485;51.536;3.816;2023-01-10T07:06:30;34.47;;;6.13;;
48685;SDS011;34485;51.536;3.816;2023-01-10T07:08:56;23.95;;;5.07;;
48685;SDS011;34485;51.536;3.816;2023-01-10T07:11:22;38.13;;;7.33;;
48685;SDS011;34485;51.536;3.816;2023-01-10T07:13:47;38.35;;;6.63;;
48685;SDS011;34485;51.536;3.816;2023-01-10T07:16:14;30.97;;;5.80;;
48685;SDS011;34485;51.536;3.816;2023-01-10T07:18:40;29.92;;;6.07;;
48685;SDS011;34485;51.536;3.816;2023-01-10T07:21:07;32.35;;;5.60;;
48685;SDS011;34485;51.536;3.816;2023-01-10T07:23:34;26.95;;;5.75;;
48685;SDS011;34485;51.536;3.816;2023-01-10T07:26:03;29.53;;;5.10;;
48685;SDS011;34485;51.536;3.816;2023-01-10T07:28:30;37.03;;;5.18;;
48685;SDS011;34485;51.536;3.816;2023-01-10T07:30:58;32.47;;;6.07;;
48685;SDS011;34485;51.536;3.816;2023-01-10T07:33:26;23.25;;;5.03;;
48685;SDS011;34485;51.536;3.816;2023-01-10T07:35:51;39.33;;;5.30;;
48685;SDS011;34485;51.536;3.816;2023-01-10T07:38:17;32.35;;;6.47;;
48685;SDS011;34485;51.536;3.816;2023-01-10T07:40:43;27.90;;;6.57;;
48685;SDS011;34485;51.536;3.816;2023-01-10T07:43:08;29.90;;;7.25;;
48685;SDS011;34485;51.536;3.816;2023-01-10T07:45:34;30.10;;;5.83;;
48685;SDS011;34485;51.536;3.816;2023-01-10T07:48:00;30.60;;;5.22;;
48685;SDS011;34485;51.536;3.816;2023-01-10T07:50:28;26.88;;;6.03;;
48685;SDS011;34485;51.536;3.816;2023-01-10T07:52:57;27.83;;;4.93;;
48685;SDS011;34485;51.536;3.816;2023-01-10T07:55:24;32.67;;;5.57;;
48685;SDS011;34485;51.536;3.816;2023-01-10T07:57:50;24.63;;;6.15;;
48685;SDS011;34485;51.536;3.816;2023-01-10T08:00:16;39.53;;;13.65;;
48685;SDS011;34485;51.536;3.816;2023-01-10T08:02:42;31.88;;;8.90;;
48685;SDS011;34485;51.536;3.816;2023-01-10T08:05:08;28.38;;;7.07;;
48685;SDS011;34485;51.536;3.816;2023-01-10T08:07:34;29.30;;;7.90;;
48685;SDS011;34485;51.536;3.816;2023-01-10T08:10:00;29.98;;;7.35;;
48685;SDS011;34485;51.536;3.816;2023-01-10T08:12:26;25.10;;;7.60;;
48685;SDS011;34485;51.536;3.816;2023-01-10T08:14:51;24.73;;;6.80;;
48685;SDS011;34485;51.536;3.816;2023-01-10T08:17:17;26.17;;;7.85;;
48685;SDS011;34485;51.536;3.816;2023-01-10T08:19:43;25.20;;;6.93;;
48685;SDS011;34485;51.536;3.816;2023-01-10T08:22:09;24.17;;;6.03;;
48685;SDS011;34485;51.536;3.816;2023-01-10T08:24:36;23.25;;;6.38;;
48685;SDS011;34485;51.536;3.816;2023-01-10T08:27:02;25.00;;;5.75;;
48685;SDS011;34485;51.536;3.816;2023-01-10T08:29:27;28.05;;;6.03;;
48685;SDS011;34485;51.536;3.816;2023-01-10T08:31:53;26.70;;;6.03;;
48685;SDS011;34485;51.536;3.816;2023-01-10T08:34:19;22.45;;;6.00;;
48685;SDS011;34485;51.536;3.816;2023-01-10T08:36:44;24.73;;;6.13;;
48685;SDS011;34485;51.536;3.816;2023-01-10T08:39:13;29.85;;;5.70;;
48685;SDS011;34485;51.536;3.816;2023-01-10T08:41:39;29.85;;;5.72;;
48685;SDS011;34485;51.536;3.816;2023-01-10T08:44:05;30.33;;;5.40;;
48685;SDS011;34485;51.536;3.816;2023-01-10T08:46:31;31.33;;;6.72;;
48685;SDS011;34485;51.536;3.816;2023-01-10T08:48:56;21.83;;;5.53;;
48685;SDS011;34485;51.536;3.816;2023-01-10T08:51:22;19.88;;;6.05;;
48685;SDS011;34485;51.536;3.816;2023-01-10T08:53:47;20.17;;;4.93;;
48685;SDS011;34485;51.536;3.816;2023-01-10T08:56:13;24.20;;;6.07;;
48685;SDS011;34485;51.536;3.816;2023-01-10T08:58:38;24.70;;;5.15;;
48685;SDS011;34485;51.536;3.816;2023-01-10T09:01:05;24.23;;;5.90;;
48685;SDS011;34485;51.536;3.816;2023-01-10T09:03:32;25.80;;;5.40;;
48685;SDS011;34485;51.536;3.816;2023-01-10T09:05:58;23.10;;;4.80;;
48685;SDS011;34485;51.536;3.816;2023-01-10T09:08:25;24.67;;;4.23;;
48685;SDS011;34485;51.536;3.816;2023-01-10T09:10:50;13.27;;;4.13;;
48685;SDS011;34485;51.536;3.816;2023-01-10T09:13:16;21.67;;;5.60;;
48685;SDS011;34485;51.536;3.816;2023-01-10T09:15:42;26.60;;;5.50;;
48685;SDS011;34485;51.536;3.816;2023-01-10T09:18:09;29.10;;;4.90;;
48685;SDS011;34485;51.536;3.816;2023-01-10T09:20:36;20.95;;;5.10;;
48685;SDS011;34485;51.536;3.816;2023-01-10T09:23:07;29.17;;;5.22;;
48685;SDS011;34485;51.536;3.816;2023-01-10T09:25:34;29.58;;;4.97;;
48685;SDS011;34485;51.536;3.816;2023-01-10T09:28:01;20.60;;;4.47;;
48685;SDS011;34485;51.536;3.816;2023-01-10T09:30:28;22.15;;;4.43;;
48685;SDS011;34485;51.536;3.816;2023-01-10T09:32:54;18.15;;;3.92;;
48685;SDS011;34485;51.536;3.816;2023-01-10T09:35:21;17.95;;;4.10;;
48685;SDS011;34485;51.536;3.816;2023-01-10T09:37:47;15.85;;;4.63;;
48685;SDS011;34485;51.536;3.816;2023-01-10T09:40:15;16.87;;;3.90;;
48685;SDS011;34485;51.536;3.816;2023-01-10T09:42:48;18.05;;;4.63;;
48685;SDS011;34485;51.536;3.816;2023-01-10T09:51:04;19.98;;;5.07;;
48685;SDS011;34485;51.536;3.816;2023-01-10T09:53:35;26.57;;;4.80;;
48685;SDS011;34485;51.536;3.816;2023-01-10T09:56:03;18.02;;;4.40;;
48685;SDS011;34485;51.536;3.816;2023-01-10T09:58:31;13.27;;;3.83;;
48685;SDS011;34485;51.536;3.816;2023-01-10T10:01:06;23.48;;;4.88;;
48685;SDS011;34485;51.536;3.816;2023-01-10T10:06:35;15.90;;;4.37;;
48685;SDS011;34485;51.536;3.816;2023-01-10T10:09:00;17.10;;;4.38;;
48685;SDS011;34485;51.536;3.816;2023-01-10T10:19:12;9.30;;;3.75;;
48685;SDS011;34485;51.536;3.816;2023-01-10T10:22:04;7.35;;;4.07;;
48685;SDS011;34485;51.536;3.816;2023-01-10T10:24:42;16.83;;;4.93;;
48685;SDS011;34485;51.536;3.816;2023-01-10T10:27:24;17.17;;;4.50;;
48685;SDS011;34485;51.536;3.816;2023-01-10T10:29:59;14.57;;;3.70;;
48685;SDS011;34485;51.536;3.816;2023-01-10T10:33:05;13.02;;;4.65;;
48685;SDS011;34485;51.536;3.816;2023-01-10T10:35:40;13.57;;;4.90;;
48685;SDS011;34485;51.536;3.816;2023-01-10T10:38:18;14.32;;;4.13;;
48685;SDS011;34485;51.536;3.816;2023-01-10T10:40:48;18.73;;;4.70;;
48685;SDS011;34485;51.536;3.816;2023-01-10T10:43:20;19.90;;;3.80;;
48685;SDS011;34485;51.536;3.816;2023-01-10T10:48:28;16.45;;;4.88;;
48685;SDS011;34485;51.536;3.816;2023-01-10T10:51:01;13.25;;;3.95;;
48685;SDS011;34485;51.536;3.816;2023-01-10T10:53:38;22.10;;;4.93;;
48685;SDS011;34485;51.536;3.816;2023-01-10T10:56:04;25.53;;;6.23;;
48685;SDS011;34485;51.536;3.816;2023-01-10T10:58:33;12.55;;;3.47;;
48685;SDS011;34485;51.536;3.816;2023-01-10T11:01:00;17.77;;;6.03;;
48685;SDS011;34485;51.536;3.816;2023-01-10T11:03:39;12.33;;;4.57;;
48685;SDS011;34485;51.536;3.816;2023-01-10T11:06:06;18.10;;;5.03;;
48685;SDS011;34485;51.536;3.816;2023-01-10T11:08:34;22.40;;;4.40;;
48685;SDS011;34485;51.536;3.816;2023-01-10T11:11:11;13.75;;;4.28;;
48685;SDS011;34485;51.536;3.816;2023-01-10T11:13:58;15.83;;;4.77;;
48685;SDS011;34485;51.536;3.816;2023-01-10T11:16:27;23.65;;;5.63;;
48685;SDS011;34485;51.536;3.816;2023-01-10T11:27:57;14.57;;;4.60;;
48685;SDS011;34485;51.536;3.816;2023-01-10T11:30:29;16.75;;;5.13;;
48685;SDS011;34485;51.536;3.816;2023-01-10T11:33:02;18.40;;;5.13;;
48685;SDS011;34485;51.536;3.816;2023-01-10T11:35:31;18.02;;;5.22;;
48685;SDS011;34485;51.536;3.816;2023-01-10T11:40:39;12.35;;;4.45;;
48685;SDS011;34485;51.536;3.816;2023-01-10T11:43:25;24.92;;;5.30;;
48685;SDS011;34485;51.536;3.816;2023-01-10T11:45:52;15.57;;;5.40;;
48685;SDS011;34485;51.536;3.816;2023-01-10T11:48:21;21.00;;;6.10;;
48685;SDS011;34485;51.536;3.816;2023-01-10T11:50:49;20.42;;;6.28;;
48685;SDS011;34485;51.536;3.816;2023-01-10T11:56:00;22.55;;;5.55;;
48685;SDS011;34485;51.536;3.816;2023-01-10T11:58:30;19.45;;;5.35;;
48685;SDS011;34485;51.536;3.816;2023-01-10T12:00:57;20.20;;;7.13;;
48685;SDS011;34485;51.536;3.816;2023-01-10T12:03:25;19.95;;;5.03;;
48685;SDS011;34485;51.536;3.816;2023-01-10T12:05:54;15.90;;;5.28;;
48685;SDS011;34485;51.536;3.816;2023-01-10T12:08:31;17.67;;;5.10;;
48685;SDS011;34485;51.536;3.816;2023-01-10T12:11:00;23.77;;;5.75;;
48685;SDS011;34485;51.536;3.816;2023-01-10T12:13:26;26.38;;;6.28;;
48685;SDS011;34485;51.536;3.816;2023-01-10T12:18:38;23.73;;;5.13;;
48685;SDS011;34485;51.536;3.816;2023-01-10T12:21:04;19.90;;;5.78;;
48685;SDS011;34485;51.536;3.816;2023-01-10T12:23:31;23.10;;;4.70;;
48685;SDS011;34485;51.536;3.816;2023-01-10T12:26:00;17.15;;;4.38;;
48685;SDS011;34485;51.536;3.816;2023-01-10T12:28:27;13.80;;;4.93;;
48685;SDS011;34485;51.536;3.816;2023-01-10T12:30:56;15.32;;;4.75;;
48685;SDS011;34485;51.536;3.816;2023-01-10T12:33:25;13.27;;;4.78;;
48685;SDS011;34485;51.536;3.816;2023-01-10T12:38:43;13.25;;;4.53;;
48685;SDS011;34485;51.536;3.816;2023-01-10T12:49:35;12.10;;;4.63;;
48685;SDS011;34485;51.536;3.816;2023-01-10T12:52:10;26.40;;;4.75;;
48685;SDS011;34485;51.536;3.816;2023-01-10T12:54:42;12.00;;;4.68;;
48685;SDS011;34485;51.536;3.816;2023-01-10T12:57:16;11.80;;;4.60;;
48685;SDS011;34485;51.536;3.816;2023-01-10T12:59:48;18.75;;;4.53;;
48685;SDS011;34485;51.536;3.816;2023-01-10T13:02:16;13.40;;;5.60;;
48685;SDS011;34485;51.536;3.816;2023-01-10T13:04:48;9.55;;;4.53;;
48685;SDS011;34485;51.536;3.816;2023-01-10T13:07:17;6.22;;;3.53;;
48685;SDS011;34485;51.536;3.816;2023-01-10T13:09:43;11.43;;;4.65;;
48685;SDS011;34485;51.536;3.816;2023-01-10T13:35:10;10.43;;;4.57;;
48685;SDS011;34485;51.536;3.816;2023-01-10T20:15:47;15.10;;;12.77;;
48685;SDS011;34485;51.536;3.816;2023-01-10T20:18:13;12.13;;;9.82;;
48685;SDS011;34485;51.536;3.816;2023-01-10T20:20:38;10.13;;;8.20;;
48685;SDS011;34485;51.536;3.816;2023-01-10T20:23:04;14.52;;;9.60;;
48685;SDS011;34485;51.536;3.816;2023-01-10T20:25:31;12.82;;;9.07;;
48685;SDS011;34485;51.536;3.816;2023-01-10T20:27:56;12.33;;;9.50;;
48685;SDS011;34485;51.536;3.816;2023-01-10T20:30:22;12.95;;;8.23;;
48685;SDS011;34485;51.536;3.816;2023-01-10T20:32:48;13.97;;;8.97;;
48685;SDS011;34485;51.536;3.816;2023-01-10T20:35:13;13.45;;;9.63;;
48685;SDS011;34485;51.536;3.816;2023-01-10T20:37:39;17.37;;;9.70;;
48685;SDS011;34485;51.536;3.816;2023-01-10T20:40:05;16.10;;;11.60;;
48685;SDS011;34485;51.536;3.816;2023-01-10T20:42:33;13.37;;;8.63;;
48685;SDS011;34485;51.536;3.816;2023-01-10T20:44:59;13.40;;;9.77;;
48685;SDS011;34485;51.536;3.816;2023-01-10T20:47:24;14.80;;;10.67;;
48685;SDS011;34485;51.536;3.816;2023-01-10T20:49:50;16.35;;;10.95;;
48685;SDS011;34485;51.536;3.816;2023-01-10T20:52:16;11.37;;;9.77;;
48685;SDS011;34485;51.536;3.816;2023-01-10T20:54:41;11.55;;;9.15;;
48685;SDS011;34485;51.536;3.816;2023-01-10T20:57:07;11.87;;;9.17;;
48685;SDS011;34485;51.536;3.816;2023-01-10T20:59:33;13.88;;;9.55;;
48685;SDS011;34485;51.536;3.816;2023-01-10T21:01:58;13.63;;;9.77;;
48685;SDS011;34485;51.536;3.816;2023-01-10T21:04:25;12.40;;;10.05;;
48685;SDS011;34485;51.536;3.816;2023-01-10T21:06:50;16.17;;;8.83;;
48685;SDS011;34485;51.536;3.816;2023-01-10T21:09:16;10.30;;;8.35;;
48685;SDS011;34485;51.536;3.816;2023-01-10T21:11:43;12.20;;;8.77;;
48685;SDS011;34485;51.536;3.816;2023-01-10T21:14:09;10.93;;;8.77;;
48685;SDS011;34485;51.536;3.816;2023-01-10T21:16:34;12.23;;;6.93;;
48685;SDS011;34485;51.536;3.816;2023-01-10T21:19:00;11.50;;;7.80;;
48685;SDS011;34485;51.536;3.816;2023-01-10T21:21:25;13.63;;;7.43;;
48685;SDS011;34485;51.536;3.816;2023-01-10T21:23:52;7.50;;;5.63;;
48685;SDS011;34485;51.536;3.816;2023-01-10T21:26:18;11.43;;;6.95;;
48685;SDS011;34485;51.536;3.816;2023-01-10T21:28:44;14.53;;;7.93;;
48685;SDS011;34485;51.536;3.816;2023-01-10T21:31:11;12.15;;;8.40;;
48685;SDS011;34485;51.536;3.816;2023-01-10T21:33:42;11.60;;;7.05;;
48685;SDS011;34485;51.536;3.816;2023-01-10T21:36:08;8.90;;;7.93;;
48685;SDS011;34485;51.536;3.816;2023-01-10T21:38:34;10.73;;;7.97;;
48685;SDS011;34485;51.536;3.816;2023-01-10T21:41:04;9.93;;;7.10;;
48685;SDS011;34485;51.536;3.816;2023-01-10T21:43:36;9.25;;;7.20;;
48685;SDS011;34485;51.536;3.816;2023-01-10T21:46:01;13.57;;;5.93;;
48685;SDS011;34485;51.536;3.816;2023-01-10T21:48:27;9.63;;;7.45;;
48685;SDS011;34485;51.536;3.816;2023-01-10T21:50:53;10.05;;;6.35;;
48685;SDS011;34485;51.536;3.816;2023-01-10T21:53:19;10.27;;;6.37;;
48685;SDS011;34485;51.536;3.816;2023-01-10T21:55:46;17.90;;;9.32;;
48685;SDS011;34485;51.536;3.816;2023-01-10T21:58:12;18.98;;;8.75;;
48685;SDS011;34485;51.536;3.816;2023-01-10T22:00:37;13.63;;;8.00;;
48685;SDS011;34485;51.536;3.816;2023-01-10T22:03:03;13.70;;;7.50;;
48685;SDS011;34485;51.536;3.816;2023-01-10T22:05:28;15.00;;;8.02;;
48685;SDS011;34485;51.536;3.816;2023-01-10T22:07:54;11.57;;;7.17;;
48685;SDS011;34485;51.536;3.816;2023-01-10T22:10:20;13.95;;;6.28;;
48685;SDS011;34485;51.536;3.816;2023-01-10T22:12:46;17.07;;;8.43;;
48685;SDS011;34485;51.536;3.816;2023-01-10T22:15:12;13.95;;;6.60;;
48685;SDS011;34485;51.536;3.816;2023-01-10T22:17:38;12.70;;;6.00;;
48685;SDS011;34485;51.536;3.816;2023-01-10T22:20:04;15.13;;;7.43;;
48685;SDS011;34485;51.536;3.816;2023-01-10T22:22:30;10.90;;;6.45;;
48685;SDS011;34485;51.536;3.816;2023-01-10T22:24:55;7.40;;;4.73;;
48685;SDS011;34485;51.536;3.816;2023-01-10T22:27:21;11.67;;;7.37;;
48685;SDS011;34485;51.536;3.816;2023-01-10T22:29:47;11.23;;;5.17;;
48685;SDS011;34485;51.536;3.816;2023-01-10T22:32:12;12.13;;;6.13;;
48685;SDS011;34485;51.536;3.816;2023-01-10T22:34:38;11.93;;;5.77;;
48685;SDS011;34485;51.536;3.816;2023-01-10T22:37:04;9.70;;;4.93;;
48685;SDS011;34485;51.536;3.816;2023-01-10T22:39:29;11.07;;;5.97;;
48685;SDS011;34485;51.536;3.816;2023-01-10T22:41:55;8.20;;;4.57;;
48685;SDS011;34485;51.536;3.816;2023-01-10T22:44:22;9.37;;;5.10;;
48685;SDS011;34485;51.536;3.816;2023-01-10T22:46:50;6.18;;;4.47;;
48685;SDS011;34485;51.536;3.816;2023-01-10T22:49:18;9.30;;;4.68;;
48685;SDS011;34485;51.536;3.816;2023-01-10T22:51:44;9.35;;;4.40;;
48685;SDS011;34485;51.536;3.816;2023-01-10T22:54:11;12.43;;;5.68;;
48685;SDS011;34485;51.536;3.816;2023-01-10T22:56:40;8.67;;;4.87;;
48685;SDS011;34485;51.536;3.816;2023-01-10T22:59:06;17.73;;;5.88;;
48685;SDS011;34485;51.536;3.816;2023-01-10T23:01:32;11.95;;;4.75;;